Time;durP1;ratioP1;P1;durP2;ratioP2;P2;SDS_P1;SDS_P2;PMS_P1;PMS_P2;Temp;Humidity;BMP_temperature;BMP_pressure;BME280_temperature;BME280_humidity;BME280_pressure;Samples;Min_cycle;Max_cycle;Signal;HPM_P1;HPM_P2
2021/03/14 00:00:34;;;;;;;1.58;0.80;;;;;;;7.54;81.25;97841.53;5061534;28;45376;-80
2021/03/14 00:02:59;;;;;;;1.60;0.75;;;;;;;7.75;77.59;97845.75;5079328;28;45434;-80
2021/03/14 00:05:27;;;;;;;1.30;0.60;;;;;;;7.74;77.63;97838.78;5061221;28;45447;-81
2021/03/14 00:07:52;;;;;;;3.63;1.20;;;;;;;7.85;75.71;97813.91;5079462;28;45508;-82
2021/03/14 00:10:18;;;;;;;0.95;0.60;;;;;;;7.86;77.24;97828.81;5079680;28;45342;-81
2021/03/14 00:12:44;;;;;;;1.23;0.40;;;;;;;7.79;77.05;97857.69;5061223;28;48408;-80
2021/03/14 00:15:09;;;;;;;2.33;0.35;;;;;;;7.79;78.06;97856.84;5079735;28;45411;-80
2021/03/14 00:17:36;;;;;;;0.70;0.30;;;;;;;7.87;77.66;97841.91;5060936;28;45505;-81
2021/03/14 00:20:03;;;;;;;1.10;0.38;;;;;;;7.92;77.20;97840.63;5066311;28;45310;-81
2021/03/14 00:22:29;;;;;;;1.27;0.40;;;;;;;8.06;67.94;97818.09;5079218;28;45236;-80
2021/03/14 00:24:54;;;;;;;1.80;0.60;;;;;;;8.13;72.06;97796.16;5079615;28;45248;-81
2021/03/14 00:27:20;;;;;;;0.85;0.50;;;;;;;8.20;68.93;97784.94;5079290;28;45437;-81
2021/03/14 00:29:45;;;;;;;0.77;0.35;;;;;;;8.32;67.63;97778.41;5079496;28;45264;-81
2021/03/14 00:32:10;;;;;;;0.63;0.35;;;;;;;8.28;71.86;97772.59;5079054;28;45295;-80
2021/03/14 00:34:36;;;;;;;1.20;0.40;;;;;;;8.48;64.11;97790.97;5079147;28;45433;-81
2021/03/14 00:37:01;;;;;;;0.85;0.30;;;;;;;8.54;65.36;97797.53;5078573;28;45465;-80
2021/03/14 00:39:27;;;;;;;2.38;0.40;;;;;;;8.79;60.16;97803.00;5075890;28;45438;-81
2021/03/14 00:41:52;;;;;;;1.27;0.30;;;;;;;9.15;54.11;97800.22;5072891;28;45380;-81
2021/03/14 00:44:18;;;;;;;0.50;0.25;;;;;;;9.04;56.98;97796.03;5079227;28;45339;-81
2021/03/14 00:46:43;;;;;;;1.05;0.30;;;;;;;9.10;54.02;97773.31;5060725;28;45506;-81
2021/03/14 00:49:19;;;;;;;1.58;0.40;;;;;;;8.91;60.89;97775.22;5060724;28;45567;-81
2021/03/14 00:51:45;;;;;;;0.98;0.50;;;;;;;8.59;68.92;97782.00;5060582;28;47419;-81
2021/03/14 00:54:11;;;;;;;1.63;0.52;;;;;;;8.42;70.40;97786.28;5078914;28;45253;-81
2021/03/14 00:56:36;;;;;;;1.52;0.68;;;;;;;8.35;72.82;97798.50;5079018;28;45437;-81
2021/03/14 00:59:02;;;;;;;1.70;0.98;;;;;;;8.28;74.13;97799.09;5078889;28;45550;-81
2021/03/14 01:01:27;;;;;;;2.92;0.80;;;;;;;8.11;75.40;97806.06;5060093;28;48097;-80
2021/03/14 01:03:52;;;;;;;1.52;0.45;;;;;;;8.17;71.36;97802.81;5050343;28;45291;-79
2021/03/14 01:06:18;;;;;;;2.53;0.75;;;;;;;8.17;73.66;97818.69;5078512;28;45460;-79
2021/03/14 01:08:43;;;;;;;1.33;0.50;;;;;;;8.21;71.44;97808.66;5060543;28;45229;-79
2021/03/14 01:11:08;;;;;;;1.92;0.57;;;;;;;8.17;73.08;97844.38;5078394;28;45634;-80
2021/03/14 01:13:34;;;;;;;1.70;0.57;;;;;;;8.08;73.29;97826.72;5079018;28;45272;-79
2021/03/14 01:15:59;;;;;;;1.95;0.40;;;;;;;8.07;71.33;97822.41;5078572;28;45536;-79
2021/03/14 01:18:25;;;;;;;1.02;0.22;;;;;;;8.01;68.21;97810.59;5071661;28;45286;-79
2021/03/14 01:20:50;;;;;;;0.88;0.30;;;;;;;7.96;68.99;97770.50;5071627;28;45216;-79
2021/03/14 01:23:15;;;;;;;1.50;0.40;;;;;;;8.05;65.40;97758.19;5060244;28;45374;-79
2021/03/14 01:25:41;;;;;;;1.25;0.40;;;;;;;7.98;68.13;97777.31;5078507;28;45478;-80
2021/03/14 01:28:06;;;;;;;1.15;0.40;;;;;;;8.05;66.20;97760.81;5060203;28;45517;-80
2021/03/14 01:30:32;;;;;;;2.53;0.28;;;;;;;8.00;64.71;97743.56;5078130;28;45346;-80
2021/03/14 01:32:57;;;;;;;1.27;0.40;;;;;;;8.07;63.91;97737.66;5060151;28;45394;-80
2021/03/14 01:35:23;;;;;;;1.23;0.40;;;;;;;8.11;65.41;97753.09;5077964;28;45450;-80
2021/03/14 01:37:48;;;;;;;0.85;0.30;;;;;;;8.21;63.99;97794.56;5078637;28;45319;-79
2021/03/14 01:40:16;;;;;;;1.70;0.32;;;;;;;8.06;69.10;97863.13;5068430;28;45987;-79
2021/03/14 01:42:41;;;;;;;1.42;0.43;;;;;;;7.90;73.27;97883.13;5078056;28;45445;-79
2021/03/14 01:45:07;;;;;;;1.35;0.20;;;;;;;7.57;67.98;97903.91;5078221;28;45292;-80
2021/03/14 01:47:39;;;;;;;0.10;0.10;;;;;;;6.84;69.17;97952.91;5078187;28;45442;-79
2021/03/14 01:50:10;;;;;;;0.80;0.20;;;;;;;6.32;73.17;97969.81;5058340;28;47585;-79
2021/03/14 01:52:36;;;;;;;0.98;0.10;;;;;;;6.01;75.56;98000.72;5078264;28;45252;-79
2021/03/14 01:55:04;;;;;;;0.08;0.00;;;;;;;5.96;73.81;98024.84;5077903;28;45418;-79
2021/03/14 01:57:30;;;;;;;0.00;0.00;;;;;;;6.01;73.65;98050.88;5078215;28;45392;-79
2021/03/14 01:59:56;;;;;;;1.25;0.20;;;;;;;5.82;78.13;98029.53;5077658;28;45277;-79
2021/03/14 02:02:22;;;;;;;0.25;0.25;;;;;;;5.67;75.80;98036.94;5077270;28;45424;-79
2021/03/14 02:04:47;;;;;;;0.00;0.00;;;;;;;8.27;69.63;98041.16;5077739;28;45227;-79
2021/03/14 02:07:16;;;;;;;0.10;0.10;;;;;;;8.76;72.02;98035.63;5077904;28;45462;-79
2021/03/14 02:09:42;;;;;;;0.17;0.00;;;;;;;7.74;70.75;98042.59;5077597;28;45517;-79
2021/03/14 02:12:13;;;;;;;0.00;0.00;;;;;;;5.41;77.37;98039.13;5077701;28;45331;-78
2021/03/14 02:14:39;;;;;;;0.00;0.00;;;;;;;4.97;79.39;98033.91;5077795;28;45279;-79
2021/03/14 02:17:08;;;;;;;0.38;0.10;;;;;;;5.24;80.85;98053.69;5059637;28;45578;-79
2021/03/14 02:19:36;;;;;;;0.10;0.00;;;;;;;5.25;81.44;98066.75;5045580;28;47914;-79
2021/03/14 02:22:02;;;;;;;0.85;0.40;;;;;;;5.18;85.20;98088.47;5077704;28;45375;-79
2021/03/14 02:24:38;;;;;;;2.10;1.48;;;;;;;4.99;84.87;98057.53;5077515;28;45307;-79
2021/03/14 02:27:06;;;;;;;0.10;0.10;;;;;;;5.53;72.60;98032.81;5059445;28;45215;-79
2021/03/14 02:29:36;;;;;;;0.10;0.00;;;;;;;5.68;68.88;98024.56;5077384;28;45409;-79
2021/03/14 02:32:06;;;;;;;0.05;0.00;;;;;;;5.46;77.02;98015.00;5077657;28;45517;-79
2021/03/14 02:34:38;;;;;;;0.22;0.10;;;;;;;5.51;75.59;98024.19;5077270;28;45439;-79
2021/03/14 02:37:06;;;;;;;0.35;0.20;;;;;;;5.68;77.19;98025.41;5077541;28;45307;-79
2021/03/14 02:39:34;;;;;;;0.10;0.10;;;;;;;5.89;75.95;98029.81;5073549;28;46256;-79
2021/03/14 02:42:02;;;;;;;0.10;0.10;;;;;;;5.82;76.19;98049.78;5072063;28;45411;-79
2021/03/14 02:44:37;;;;;;;0.10;0.08;;;;;;;5.93;74.62;98054.97;5077549;28;45376;-79
2021/03/14 02:47:04;;;;;;;0.10;0.10;;;;;;;5.54;76.75;98075.88;5058804;28;45456;-79
2021/03/14 02:49:31;;;;;;;0.52;0.10;;;;;;;5.03;76.77;98061.59;5076979;28;45952;-80
2021/03/14 02:51:56;;;;;;;0.10;0.10;;;;;;;5.32;77.85;98040.72;5077216;28;45270;-79
2021/03/14 02:54:23;;;;;;;0.20;0.10;;;;;;;5.24;79.56;98046.63;5077330;28;45543;-79
2021/03/14 02:56:50;;;;;;;0.20;0.10;;;;;;;5.15;78.56;98046.53;5077242;28;45240;-79
2021/03/14 02:59:21;;;;;;;0.60;0.10;;;;;;;4.88;78.68;98051.34;5077050;28;45429;-79
2021/03/14 03:01:48;;;;;;;0.17;0.10;;;;;;;4.81;81.35;98060.66;5079713;28;45181;-79
2021/03/14 03:04:17;;;;;;;0.10;0.10;;;;;;;4.83;80.28;98053.47;5080526;28;45286;-79
2021/03/14 03:06:43;;;;;;;0.57;0.10;;;;;;;4.93;77.20;98053.59;5062217;28;45668;-80
2021/03/14 03:09:10;;;;;;;0.10;0.10;;;;;;;5.00;76.91;98054.75;5080444;28;45363;-80
2021/03/14 03:11:36;;;;;;;0.10;0.00;;;;;;;5.21;76.26;98059.22;5062053;28;45289;-80
2021/03/14 03:14:02;;;;;;;1.88;0.28;;;;;;;5.34;80.66;98072.25;5080693;28;45363;-79
2021/03/14 03:16:28;;;;;;;0.10;0.10;;;;;;;5.37;80.25;98082.53;5080399;28;45513;-80
2021/03/14 03:18:54;;;;;;;1.08;0.20;;;;;;;5.24;82.61;98087.97;5068724;28;46194;-79
2021/03/14 03:21:21;;;;;;;1.50;0.30;;;;;;;5.10;78.66;98078.56;5078136;28;45406;-80
2021/03/14 03:23:47;;;;;;;0.60;0.20;;;;;;;5.14;80.49;98074.72;5080382;28;45900;-79
2021/03/14 03:26:14;;;;;;;1.25;0.20;;;;;;;5.39;79.75;98077.97;5080187;28;45581;-79
2021/03/14 03:28:40;;;;;;;1.58;0.30;;;;;;;5.26;81.52;98081.63;5080160;28;45279;-79
2021/03/14 03:31:05;;;;;;;0.20;0.10;;;;;;;5.09;83.06;98084.81;5080135;28;45176;-79
2021/03/14 03:33:31;;;;;;;0.20;0.20;;;;;;;4.91;82.91;98090.63;5080505;28;45319;-79
2021/03/14 03:35:57;;;;;;;0.10;0.10;;;;;;;4.88;85.71;98088.22;5061540;28;45431;-79
2021/03/14 03:38:23;;;;;;;1.10;0.20;;;;;;;4.79;84.62;98084.53;5061840;28;47269;-79
2021/03/14 03:40:49;;;;;;;2.15;0.20;;;;;;;4.83;79.06;98079.81;5070500;28;45539;-79
2021/03/14 03:43:22;;;;;;;1.85;0.30;;;;;;;5.09;82.55;98076.91;5061786;28;45484;-79
2021/03/14 03:45:50;;;;;;;0.98;0.35;;;;;;;5.04;79.76;98086.97;5080000;28;45515;-79
2021/03/14 03:48:26;;;;;;;1.15;0.17;;;;;;;5.10;81.42;98087.31;5079679;28;45400;-79
2021/03/14 03:50:55;;;;;;;0.30;0.20;;;;;;;4.91;83.48;98066.91;5061448;28;45861;-79
2021/03/14 03:53:21;;;;;;;0.30;0.30;;;;;;;4.44;82.91;98042.56;5061659;28;45245;-79
2021/03/14 03:55:49;;;;;;;1.83;0.30;;;;;;;4.66;80.47;98039.88;5080115;28;45426;-79
2021/03/14 03:58:16;;;;;;;0.60;0.28;;;;;;;4.46;83.04;98053.81;5079633;28;45499;-79
2021/03/14 04:00:43;;;;;;;2.75;0.35;;;;;;;4.30;84.87;98065.56;5079828;28;45430;-79
2021/03/14 04:03:09;;;;;;;1.27;0.28;;;;;;;4.26;84.26;98069.41;5078875;28;45469;-79
2021/03/14 04:05:35;;;;;;;1.65;0.30;;;;;;;4.18;85.76;98077.06;5061440;28;45557;-79
2021/03/14 04:08:01;;;;;;;2.00;0.50;;;;;;;4.47;84.09;98098.47;5061063;28;46950;-79
2021/03/14 04:10:28;;;;;;;1.17;0.40;;;;;;;4.73;80.27;98102.59;5079565;28;45509;-79
2021/03/14 04:12:54;;;;;;;1.83;0.60;;;;;;;4.72;79.59;98109.69;5078723;28;45366;-79
2021/03/14 04:15:24;;;;;;;1.77;0.30;;;;;;;4.56;82.17;98117.13;5079693;28;45383;-79
2021/03/14 04:17:51;;;;;;;2.05;0.47;;;;;;;4.46;83.85;98135.44;5076850;28;45304;-79
2021/03/14 04:20:20;;;;;;;2.72;0.55;;;;;;;4.41;85.07;98145.50;5050203;28;45256;-79
2021/03/14 04:22:52;;;;;;;1.25;0.50;;;;;;;4.27;84.05;98163.22;5079363;28;45359;-78
2021/03/14 04:25:18;;;;;;;1.05;0.50;;;;;;;4.28;83.78;98151.72;5079505;28;45362;-79
2021/03/14 04:27:46;;;;;;;0.90;0.40;;;;;;;4.21;82.28;98158.41;5079078;28;45443;-79
2021/03/14 04:30:13;;;;;;;2.97;0.32;;;;;;;4.05;84.30;98158.75;5079338;28;45312;-79
2021/03/14 04:32:39;;;;;;;3.65;0.80;;;;;;;3.89;88.52;98183.59;5078021;28;45233;-78
2021/03/14 04:35:07;;;;;;;1.90;0.55;;;;;;;3.93;85.44;98194.72;5060755;28;45575;-78
2021/03/14 04:37:33;;;;;;;1.85;0.70;;;;;;;4.14;85.90;98188.81;5079011;28;46693;-79
2021/03/14 04:40:00;;;;;;;2.17;0.60;;;;;;;4.04;86.20;98188.66;5071333;28;45475;-79
2021/03/14 04:42:26;;;;;;;1.85;0.65;;;;;;;3.94;86.79;98193.75;5077655;28;45339;-79
2021/03/14 04:44:53;;;;;;;2.20;0.60;;;;;;;3.78;87.16;98207.25;5079272;28;45444;-79
2021/03/14 04:47:18;;;;;;;1.98;0.50;;;;;;;3.92;86.25;98203.56;5078538;28;46249;-78
2021/03/14 04:49:44;;;;;;;2.88;1.20;;;;;;;4.06;85.93;98211.28;5078663;28;45363;-79
2021/03/14 04:52:12;;;;;;;2.50;0.75;;;;;;;3.96;86.40;98206.81;5078875;28;45226;-78
2021/03/14 04:54:38;;;;;;;2.38;0.52;;;;;;;3.81;84.53;98217.53;5078865;28;45313;-78
2021/03/14 04:57:05;;;;;;;1.50;0.43;;;;;;;3.86;84.93;98223.28;5078699;28;45330;-79
2021/03/14 04:59:31;;;;;;;0.95;0.30;;;;;;;3.78;84.15;98231.72;5078682;28;45343;-79
2021/03/14 05:01:56;;;;;;;0.98;0.35;;;;;;;3.84;86.39;98234.88;5078506;28;45302;-79
2021/03/14 05:04:23;;;;;;;1.95;0.80;;;;;;;3.96;87.05;98236.59;5060497;28;45453;-79
2021/03/14 05:06:51;;;;;;;1.17;0.40;;;;;;;3.97;86.86;98237.44;5078598;28;45314;-79
2021/03/14 05:09:17;;;;;;;0.80;0.10;;;;;;;4.05;85.76;98233.28;5078594;28;45563;-79
2021/03/14 05:11:48;;;;;;;0.20;0.10;;;;;;;3.92;85.61;98221.97;5078794;28;45367;-79
2021/03/14 05:14:14;;;;;;;0.52;0.20;;;;;;;3.97;85.05;98225.09;5078583;28;45453;-78
2021/03/14 05:16:42;;;;;;;2.30;0.68;;;;;;;3.83;85.30;98217.41;5078633;28;45250;-79
2021/03/14 05:19:08;;;;;;;1.23;0.50;;;;;;;3.71;85.85;98209.47;5046884;28;45576;-79
2021/03/14 05:21:34;;;;;;;2.60;0.73;;;;;;;3.92;80.95;98229.88;5078442;28;45390;-79
2021/03/14 05:24:00;;;;;;;2.85;0.65;;;;;;;4.00;83.29;98219.63;5078357;28;45339;-79
2021/03/14 05:26:27;;;;;;;1.08;0.65;;;;;;;3.86;82.43;98204.03;5078247;28;46211;-78
2021/03/14 05:28:55;;;;;;;1.67;0.28;;;;;;;3.94;82.71;98217.44;5078488;28;45318;-79
2021/03/14 05:31:28;;;;;;;3.03;0.73;;;;;;;4.08;85.25;98214.63;5065709;28;45341;-78
2021/03/14 05:33:54;;;;;;;2.03;0.45;;;;;;;3.77;87.01;98237.13;5077959;28;45281;-79
2021/03/14 05:36:20;;;;;;;2.25;0.50;;;;;;;3.91;88.12;98249.25;5078310;28;45977;-79
2021/03/14 05:38:45;;;;;;;0.55;0.22;;;;;;;4.07;85.54;98264.75;5078039;28;45320;-79
2021/03/14 05:41:11;;;;;;;1.92;0.20;;;;;;;4.31;86.58;98261.22;5056125;28;45530;-80
2021/03/14 05:43:37;;;;;;;1.42;0.20;;;;;;;4.13;84.11;98247.66;5074957;28;45646;-80
2021/03/14 05:46:03;;;;;;;1.08;0.40;;;;;;;4.09;83.30;98245.25;5078321;28;46510;-81
2021/03/14 05:48:28;;;;;;;0.40;0.20;;;;;;;4.03;82.55;98243.09;5059530;28;45424;-81
2021/03/14 05:50:54;;;;;;;1.15;0.40;;;;;;;4.11;85.54;98228.53;5074319;28;45537;-82
2021/03/14 05:53:20;;;;;;;1.92;1.75;;;;;;;4.16;83.98;98240.34;5077211;28;45644;-81
2021/03/14 05:55:49;;;;;;;2.63;0.80;;;;;;;3.98;84.83;98234.72;5075786;28;46141;-80
2021/03/14 05:58:14;;;;;;;1.13;0.50;;;;;;;4.31;85.87;98233.09;5076501;28;45541;-82
2021/03/14 06:00:41;;;;;;;4.07;2.67;;;;;;;4.34;83.62;98251.31;5069828;28;45405;-82
2021/03/14 06:03:10;;;;;;;1.98;1.08;;;;;;;4.12;85.17;98267.88;5073507;28;45634;-82
2021/03/14 06:05:36;;;;;;;1.00;0.52;;;;;;;4.24;84.68;98272.22;5071165;27;45838;-81
2021/03/14 06:08:03;;;;;;;0.35;0.30;;;;;;;4.30;84.50;98272.69;5069453;28;45403;-82
2021/03/14 06:10:29;;;;;;;1.10;0.30;;;;;;;4.09;81.84;98273.38;5049699;28;45340;-83
2021/03/14 06:12:54;;;;;;;1.05;0.40;;;;;;;4.36;84.54;98269.59;5031966;28;45609;-80
2021/03/14 06:15:20;;;;;;;1.02;0.40;;;;;;;4.34;85.44;98274.16;5036338;28;45482;-82
2021/03/14 06:17:45;;;;;;;1.75;0.32;;;;;;;4.63;83.41;98274.56;5036389;28;45468;-81
2021/03/14 06:20:38;;;;;;;2.60;0.38;;;;;;;4.51;83.14;98264.97;5035995;28;45450;-81
2021/03/14 06:23:11;;;;;;;2.28;0.40;;;;;;;4.16;84.16;98264.06;5015836;28;45654;-81
2021/03/14 06:25:39;;;;;;;1.20;0.60;;;;;;;3.97;85.70;98251.41;5036419;28;46223;-80
2021/03/14 06:28:05;;;;;;;0.63;0.43;;;;;;;3.89;87.62;98251.16;5014215;28;45514;-82
2021/03/14 06:30:32;;;;;;;1.27;0.30;;;;;;;4.01;85.68;98247.63;5017678;28;45443;-83
2021/03/14 06:33:05;;;;;;;1.63;0.40;;;;;;;3.95;86.04;98248.06;5030402;28;45441;-82
2021/03/14 06:35:51;;;;;;;2.15;0.38;;;;;;;4.13;84.14;98253.75;5036181;28;47587;-83
2021/03/14 06:38:28;;;;;;;1.20;0.50;;;;;;;4.17;82.15;98257.84;5037309;28;45479;-81
2021/03/14 06:41:10;;;;;;;2.40;0.43;;;;;;;3.98;85.60;98255.75;5021447;28;45293;-84
2021/03/14 06:43:42;;;;;;;1.00;0.20;;;;;;;4.01;86.48;98263.44;5038157;28;45660;-83
2021/03/14 06:46:28;;;;;;;1.90;0.45;;;;;;;4.36;85.44;98266.97;5022281;28;46867;-82
2021/03/14 06:49:06;;;;;;;1.75;0.70;;;;;;;4.44;86.97;98259.34;5013807;28;45794;-82
2021/03/14 06:51:52;;;;;;;1.80;0.55;;;;;;;4.61;84.98;98263.31;5036267;28;45477;-81
2021/03/14 06:54:33;;;;;;;2.83;0.90;;;;;;;4.76;86.66;98271.00;5039500;28;45359;-80
2021/03/14 06:57:00;;;;;;;3.80;0.88;;;;;;;4.91;84.81;98274.25;5021214;28;48079;-80
2021/03/14 06:59:26;;;;;;;2.33;0.80;;;;;;;4.84;84.89;98280.94;5051140;28;45305;-80
2021/03/14 07:02:02;;;;;;;2.65;1.02;;;;;;;5.05;84.68;98281.09;5010866;28;45532;-86
2021/03/14 07:04:55;;;;;;;2.85;1.10;;;;;;;5.29;83.61;98273.00;5035536;28;45541;-80
2021/03/14 07:07:21;;;;;;;2.45;0.80;;;;;;;4.99;82.26;98277.13;5023792;28;45533;-80
2021/03/14 07:09:52;;;;;;;2.03;0.52;;;;;;;5.20;81.61;98279.88;5038453;28;45334;-80
2021/03/14 07:12:23;;;;;;;1.33;0.65;;;;;;;5.29;82.17;98288.00;5037754;28;45430;-80
2021/03/14 07:14:49;;;;;;;2.58;0.70;;;;;;;5.57;81.47;98296.34;5036880;28;45390;-83
2021/03/14 07:17:30;;;;;;;2.08;0.90;;;;;;;5.53;83.33;98293.97;5030826;28;45952;-80
2021/03/14 07:19:57;;;;;;;2.75;0.90;;;;;;;5.55;82.91;98289.41;5037665;28;45411;-81
2021/03/14 07:22:23;;;;;;;3.03;0.90;;;;;;;5.62;82.13;98307.38;5038146;28;45591;-81
2021/03/14 07:24:48;;;;;;;3.05;1.00;;;;;;;5.41;84.25;98302.84;5035083;28;45545;-81
2021/03/14 07:27:21;;;;;;;1.77;0.60;;;;;;;5.48;81.35;98308.50;5035579;28;45574;-80
2021/03/14 07:29:48;;;;;;;1.27;0.50;;;;;;;5.37;81.15;98310.19;5038382;28;45387;-80
2021/03/14 07:32:13;;;;;;;1.25;0.70;;;;;;;5.44;81.37;98299.97;5038483;28;45449;-81
2021/03/14 07:34:39;;;;;;;2.10;0.77;;;;;;;5.68;81.20;98285.78;5034819;28;45361;-82
2021/03/14 07:37:05;;;;;;;1.23;0.82;;;;;;;5.92;80.53;98285.59;5035427;28;47171;-80
2021/03/14 07:39:30;;;;;;;1.98;1.00;;;;;;;6.00;80.45;98284.97;5033245;28;45403;-80
2021/03/14 07:41:57;;;;;;;3.83;0.85;;;;;;;6.20;78.29;98282.50;5037390;28;45540;-81
2021/03/14 07:44:25;;;;;;;2.00;1.30;;;;;;;6.10;76.79;98288.56;5037782;28;45471;-78
2021/03/14 07:46:52;;;;;;;2.70;1.15;;;;;;;6.54;77.87;98290.25;5036277;28;45544;-81
2021/03/14 07:49:19;;;;;;;1.70;0.75;;;;;;;6.38;76.89;98298.63;5037241;28;45431;-81
2021/03/14 07:51:49;;;;;;;3.88;1.08;;;;;;;6.10;77.84;98304.41;5037624;28;45572;-80
2021/03/14 07:54:37;;;;;;;1.67;0.80;;;;;;;5.78;77.82;98299.06;5037904;28;45498;-81
2021/03/14 07:57:03;;;;;;;3.50;1.02;;;;;;;5.87;76.41;98308.06;5030576;28;45502;-81
2021/03/14 07:59:31;;;;;;;3.30;0.90;;;;;;;5.89;76.47;98300.84;5017006;28;45928;-85
2021/03/14 08:02:18;;;;;;;3.72;1.05;;;;;;;5.96;77.29;98309.94;5035469;28;45317;-81
2021/03/14 08:05:10;;;;;;;2.75;1.20;;;;;;;6.36;79.42;98311.13;5035963;28;45668;-81
2021/03/14 08:07:35;;;;;;;6.03;4.20;;;;;;;6.63;78.50;98317.72;5031648;28;45452;-81
2021/03/14 08:10:03;;;;;;;5.63;2.90;;;;;;;6.75;79.41;98324.59;5030787;28;45491;-81
2021/03/14 08:12:35;;;;;;;3.97;1.08;;;;;;;6.68;76.31;98334.88;5001932;28;46018;-81
2021/03/14 08:15:01;;;;;;;2.85;1.05;;;;;;;6.64;76.92;98336.09;5036883;28;45335;-81
2021/03/14 08:17:36;;;;;;;1.95;0.90;;;;;;;6.47;78.69;98326.06;5017332;28;47532;-81
2021/03/14 08:20:04;;;;;;;2.78;1.05;;;;;;;6.68;76.88;98326.09;5034785;28;45451;-83
2021/03/14 08:22:38;;;;;;;2.20;0.98;;;;;;;6.75;78.46;98311.38;5036261;28;45346;-81
2021/03/14 08:25:44;;;;;;;1.67;0.90;;;;;;;6.73;76.77;98323.91;5034976;28;45460;-81
2021/03/14 08:28:33;;;;;;;3.00;1.00;;;;;;;6.82;77.12;98330.22;5037442;28;45534;-81
2021/03/14 08:31:02;;;;;;;2.70;0.75;;;;;;;7.25;74.31;98337.09;5035734;28;45467;-82
2021/03/14 08:33:44;;;;;;;1.67;0.80;;;;;;;6.94;72.41;98338.91;5037950;28;45436;-80
2021/03/14 08:36:15;;;;;;;3.60;1.13;;;;;;;6.96;75.01;98351.03;5037527;28;45313;-81
2021/03/14 08:38:48;;;;;;;3.05;0.90;;;;;;;6.75;75.30;98347.56;5031306;28;45395;-80
2021/03/14 08:41:20;;;;;;;6.47;1.15;;;;;;;6.68;75.76;98366.59;5035317;28;45271;-81
2021/03/14 08:43:48;;;;;;;2.78;0.80;;;;;;;6.68;76.31;98385.09;5036592;28;45582;-81
2021/03/14 08:46:14;;;;;;;2.17;1.08;;;;;;;6.49;75.37;98384.91;5037101;28;45381;-81
2021/03/14 08:48:39;;;;;;;3.35;0.93;;;;;;;6.82;76.37;98383.91;5034433;28;47264;-81
2021/03/14 08:51:07;;;;;;;2.78;0.90;;;;;;;6.88;75.69;98401.06;5036751;28;45463;-81
2021/03/14 08:53:33;;;;;;;3.08;0.88;;;;;;;6.74;73.91;98410.16;5037189;28;45510;-81
2021/03/14 08:56:03;;;;;;;4.28;1.10;;;;;;;6.65;75.99;98393.28;5037612;28;45372;-80
2021/03/14 08:58:29;;;;;;;3.33;1.20;;;;;;;6.29;74.37;98395.31;5013254;28;46912;-81
2021/03/14 09:01:11;;;;;;;4.00;1.00;;;;;;;6.31;76.28;98388.09;5019456;28;45321;-78
2021/03/14 09:03:41;;;;;;;2.25;1.00;;;;;;;6.50;73.43;98395.38;5018613;28;45424;-78
2021/03/14 09:06:12;;;;;;;2.05;0.95;;;;;;;6.63;75.56;98397.84;5037246;28;45242;-82
2021/03/14 09:08:38;;;;;;;2.90;0.80;;;;;;;6.54;73.99;98401.22;5018457;28;48116;-81
2021/03/14 09:11:03;;;;;;;5.18;1.08;;;;;;;6.98;73.67;98406.41;5036461;28;45443;-82
2021/03/14 09:13:30;;;;;;;4.35;0.90;;;;;;;6.90;74.96;98414.16;5029912;28;45245;-81
2021/03/14 09:15:55;;;;;;;3.38;0.80;;;;;;;6.75;74.72;98418.94;5035722;28;45464;-83
2021/03/14 09:18:24;;;;;;;4.07;0.70;;;;;;;6.80;75.06;98420.22;5036506;28;45411;-84
2021/03/14 09:21:00;;;;;;;1.63;0.63;;;;;;;7.22;72.96;98416.72;5036189;28;45470;-83
2021/03/14 09:23:25;;;;;;;2.75;1.00;;;;;;;7.38;71.34;98415.41;5035973;28;45372;-82
2021/03/14 09:25:54;;;;;;;4.72;1.30;;;;;;;7.57;69.75;98409.38;5036794;28;45354;-82
2021/03/14 09:28:20;;;;;;;5.68;1.42;;;;;;;7.79;70.78;98421.59;5017934;28;48003;-81
2021/03/14 09:30:45;;;;;;;5.45;1.67;;;;;;;9.46;67.87;98426.13;5033721;28;45519;-81
2021/03/14 09:33:12;;;;;;;4.30;1.17;;;;;;;11.08;63.14;98438.03;5035357;28;45360;-83
2021/03/14 09:35:40;;;;;;;3.33;0.98;;;;;;;10.40;62.77;98442.06;5035440;28;45497;-81
2021/03/14 09:38:15;;;;;;;2.28;0.60;;;;;;;8.99;63.18;98453.47;5035448;28;46406;-88
2021/03/14 09:40:44;;;;;;;3.38;0.80;;;;;;;8.22;67.11;98458.50;5037063;28;45450;-90
2021/03/14 09:43:22;;;;;;;5.85;0.85;;;;;;;7.85;68.63;98471.38;5037851;28;45256;-85
2021/03/14 09:45:58;;;;;;;4.10;0.95;;;;;;;7.32;71.42;98475.00;5037272;28;45465;-85
2021/03/14 09:48:25;;;;;;;3.65;0.90;;;;;;;7.21;70.72;98494.41;5036939;28;46064;-83
2021/03/14 09:51:00;;;;;;;2.50;0.70;;;;;;;7.01;72.37;98494.28;5018901;28;45317;-82
2021/03/14 09:53:30;;;;;;;2.78;0.90;;;;;;;6.80;72.45;98493.41;5037095;28;45370;-81
2021/03/14 09:55:58;;;;;;;2.45;0.80;;;;;;;6.62;71.91;98506.31;5036489;28;45490;-82
2021/03/14 09:58:25;;;;;;;3.00;1.08;;;;;;;6.66;73.93;98503.31;5035499;28;47713;-81
2021/03/14 10:00:52;;;;;;;3.13;0.90;;;;;;;6.34;73.29;98513.81;5037004;28;45522;-80
2021/03/14 10:03:22;;;;;;;2.65;1.02;;;;;;;6.28;70.06;98513.34;5019002;28;45326;-80
2021/03/14 10:05:53;;;;;;;3.10;0.90;;;;;;;6.09;70.71;98516.59;5052169;28;45319;-80
2021/03/14 10:08:19;;;;;;;;;;;;;;;6.10;74.21;98522.72;5019036;28;47203;-80
2021/03/14 10:10:45;;;;;;;4.72;1.17;;;;;;;6.16;73.34;98509.03;5018044;28;45380;-79
2021/03/14 10:13:12;;;;;;;4.13;0.90;;;;;;;6.42;72.76;98511.41;5036885;28;45431;-80
2021/03/14 10:15:38;;;;;;;4.65;1.00;;;;;;;6.54;71.87;98496.34;5036875;28;45459;-80
2021/03/14 10:18:04;;;;;;;4.28;1.00;;;;;;;6.89;73.08;98495.28;5018728;28;46998;-80
2021/03/14 10:20:31;;;;;;;3.58;0.73;;;;;;;7.28;71.13;98495.56;5023463;28;45379;-79
2021/03/14 10:23:05;;;;;;;6.28;1.60;;;;;;;7.88;69.68;98502.88;5036650;28;45385;-79
2021/03/14 10:25:34;;;;;;;3.95;1.27;;;;;;;8.51;67.61;98500.19;5018764;28;45369;-80
2021/03/14 10:28:13;;;;;;;4.50;0.95;;;;;;;8.67;63.68;98512.88;5036369;28;45220;-79
2021/03/14 10:30:42;;;;;;;2.50;0.88;;;;;;;9.07;65.82;98516.41;5052187;28;45614;-79
2021/03/14 10:33:31;;;;;;;3.15;0.90;;;;;;;9.14;63.41;98515.72;5036824;28;45216;-79
2021/03/14 10:36:05;;;;;;;3.35;0.82;;;;;;;8.56;64.55;98514.69;5036646;28;45421;-79
2021/03/14 10:38:39;;;;;;;4.53;0.80;;;;;;;8.82;64.31;98529.25;5018394;28;47520;-79
2021/03/14 10:41:14;;;;;;;3.83;1.55;;;;;;;8.56;64.08;98537.72;5023701;28;46034;-79
2021/03/14 10:43:58;;;;;;;4.22;1.10;;;;;;;8.61;63.20;98528.38;5036311;28;45376;-79
2021/03/14 10:46:32;;;;;;;5.85;1.40;;;;;;;8.88;63.83;98528.69;5024786;28;45599;-79
2021/03/14 10:49:05;;;;;;;3.88;1.30;;;;;;;8.84;65.05;98520.19;5018021;28;47232;-80
2021/03/14 10:51:32;;;;;;;3.28;1.10;;;;;;;8.82;64.07;98521.28;5036490;28;45343;-79
2021/03/14 10:54:04;;;;;;;1.90;0.80;;;;;;;8.37;63.26;98525.22;5036530;28;45486;-80
2021/03/14 10:56:34;;;;;;;3.95;0.90;;;;;;;8.17;65.05;98526.00;5036526;28;45356;-79
2021/03/14 10:59:00;;;;;;;4.13;1.40;;;;;;;7.86;66.55;98531.31;5036097;28;45467;-79
2021/03/14 11:02:04;;;;;;;3.78;1.08;;;;;;;7.49;65.02;98539.72;5036235;28;45229;-79
2021/03/14 11:04:26;;;;;;;2.60;1.00;;;;;;;7.28;67.70;98542.38;5022385;28;45474;-79
2021/03/14 11:06:51;;;;;;;2.00;0.90;;;;;;;7.24;68.51;98554.16;5036147;28;45483;-79
2021/03/14 11:09:21;;;;;;;3.45;1.35;;;;;;;7.03;70.18;98551.47;5018201;28;47918;-79
2021/03/14 11:11:49;;;;;;;3.63;1.58;;;;;;;6.60;70.42;98553.97;5018055;28;45639;-79
2021/03/14 11:14:38;;;;;;;3.13;0.60;;;;;;;6.57;68.35;98556.88;5034953;28;45416;-79
2021/03/14 11:17:15;;;;;;;3.50;0.80;;;;;;;6.60;72.14;98553.97;5024586;28;45328;-79
2021/03/14 11:19:43;;;;;;;4.20;0.90;;;;;;;6.10;72.94;98555.25;5017804;28;47576;-79
2021/03/14 11:22:09;;;;;;;2.70;0.77;;;;;;;6.24;73.34;98558.59;5038382;28;45440;-79
2021/03/14 11:24:37;;;;;;;3.15;1.00;;;;;;;6.20;71.03;98562.44;5039425;28;45304;-79
2021/03/14 11:27:03;;;;;;;3.90;1.20;;;;;;;6.31;74.35;98573.00;5039431;28;45221;-79
2021/03/14 11:29:28;;;;;;;3.05;0.88;;;;;;;6.13;72.14;98578.78;5039111;28;46251;-79
2021/03/14 11:31:54;;;;;;;2.25;0.90;;;;;;;6.10;70.17;98579.03;5039480;28;45398;-79
2021/03/14 11:34:20;;;;;;;2.03;1.00;;;;;;;5.76;72.81;98576.31;5039213;28;45376;-79
2021/03/14 11:36:48;;;;;;;3.95;0.70;;;;;;;6.13;73.79;98570.00;5039342;28;45222;-79
2021/03/14 11:39:13;;;;;;;1.90;0.70;;;;;;;6.31;72.49;98564.25;5037823;28;46186;-79
2021/03/14 11:41:39;;;;;;;2.03;0.73;;;;;;;6.30;73.90;98565.22;5039052;28;45328;-79
2021/03/14 11:44:06;;;;;;;4.18;0.95;;;;;;;6.36;70.85;98565.56;5039156;28;45446;-79
2021/03/14 11:46:31;;;;;;;2.78;0.70;;;;;;;6.47;70.68;98567.34;5037982;28;45595;-79
2021/03/14 11:48:56;;;;;;;3.03;1.10;;;;;;;6.75;70.25;98561.66;5038591;28;46359;-79